Time;durP1;ratioP1;P1;durP2;ratioP2;P2;SDS_P1;SDS_P2;PMS_P1;PMS_P2;Temp;Humidity;BMP_temperature;BMP_pressure;BME280_temperature;BME280_humidity;BME280_pressure;Samples;Min_cycle;Max_cycle;Signal;HPM_P1;HPM_P2
2022/06/28 00:00:17;;;;;;;15.83;5.25;;;;;;;20.73;54.79;98873.87;1444974;81;21028;-69
2022/06/28 00:02:20;;;;;;;10.00;5.12;;;;;;;20.69;54.88;98876.48;1443122;81;81057;-69
2022/06/28 00:04:25;;;;;;;7.12;4.55;;;;;;;20.66;54.98;98871.38;1446697;81;21001;-70
2022/06/28 00:06:26;;;;;;;7.58;5.37;;;;;;;20.63;55.12;98866.28;1447654;81;21033;-68
2022/06/28 00:08:27;;;;;;;6.20;4.97;;;;;;;20.60;55.17;98870.08;1444590;81;80547;-68
2022/06/28 00:10:30;;;;;;;7.00;5.08;;;;;;;20.61;55.22;98868.27;1447707;81;21594;-69
2022/06/28 00:12:34;;;;;;;7.80;4.78;;;;;;;20.59;55.30;98865.23;1444525;81;21016;-69
2022/06/28 00:16:56;;;;;;;13.65;4.95;;;;;;;20.56;55.46;98862.84;1444391;81;21056;-68
2022/06/28 00:18:57;;;;;;;17.25;4.60;;;;;;;20.55;55.60;98872.36;1446198;81;82119;-68
2022/06/28 00:20:58;;;;;;;10.70;4.92;;;;;;;20.54;55.62;98866.14;1445253;81;22114;-68
2022/06/28 00:22:59;;;;;;;8.25;4.80;;;;;;;20.52;55.70;98858.76;1446140;81;21088;-69
2022/06/28 00:25:00;;;;;;;9.48;5.25;;;;;;;20.51;55.77;98861.07;1446068;81;80820;-69
2022/06/28 00:27:01;;;;;;;8.25;4.78;;;;;;;20.50;55.86;98859.38;1443797;81;21028;-69
2022/06/28 00:29:02;;;;;;;6.25;4.92;;;;;;;20.49;55.93;98863.06;1443985;81;21033;-70
2022/06/28 00:31:06;;;;;;;7.20;5.30;;;;;;;20.45;56.01;98864.33;1447561;81;82050;-70
2022/06/28 00:33:07;;;;;;;7.15;4.62;;;;;;;20.41;56.09;98860.23;1446410;81;21426;-69
2022/06/28 00:35:09;;;;;;;7.72;5.20;;;;;;;20.37;56.16;98865.02;1445723;81;21036;-70
2022/06/28 00:37:10;;;;;;;16.25;5.80;;;;;;;20.34;56.28;98860.41;1447153;81;80591;-68
2022/06/28 00:39:13;;;;;;;6.22;5.08;;;;;;;20.27;56.33;98864.17;1447783;81;21071;-69
2022/06/28 00:41:14;;;;;;;9.00;4.90;;;;;;;20.28;56.45;98873.03;1444254;81;21063;-68
2022/06/28 00:43:16;;;;;;;5.37;4.87;;;;;;;20.25;56.51;98869.63;1447181;81;80519;-68
2022/06/28 00:45:17;;;;;;;6.78;5.17;;;;;;;20.23;56.62;98876.13;1447269;81;21050;-68
2022/06/28 00:47:18;;;;;;;9.40;5.00;;;;;;;20.21;56.70;98877.61;1445768;81;21156;-69
2022/06/28 00:49:20;;;;;;;15.90;5.25;;;;;;;20.17;56.77;98869.51;1445710;81;80675;-69
2022/06/28 00:51:24;;;;;;;5.95;4.87;;;;;;;20.15;56.87;98866.11;1449161;81;21007;-69
2022/06/28 00:53:25;;;;;;;10.80;5.12;;;;;;;20.08;56.97;98873.00;1450543;81;21038;-68
2022/06/28 00:55:28;;;;;;;15.50;5.30;;;;;;;20.04;57.09;98876.94;1447711;81;81519;-68
2022/06/28 00:57:29;;;;;;;15.80;5.08;;;;;;;19.99;57.18;98880.03;1447041;81;21642;-69
2022/06/28 00:59:31;;;;;;;10.75;5.25;;;;;;;19.95;57.30;98880.41;1449029;81;21004;-69
2022/06/28 01:01:32;;;;;;;9.03;4.95;;;;;;;19.88;57.35;98875.63;1448463;81;81708;-69
2022/06/28 01:03:33;;;;;;;7.00;5.30;;;;;;;19.86;57.45;98876.23;1446433;81;21020;-68
2022/06/28 01:05:36;;;;;;;5.92;5.15;;;;;;;19.82;57.59;98869.47;1445215;81;21615;-68
2022/06/28 01:07:37;;;;;;;5.80;5.20;;;;;;;19.81;57.68;98874.45;1446268;81;80525;-68
2022/06/28 01:09:38;;;;;;;5.15;4.62;;;;;;;19.80;57.76;98866.56;1444896;81;21697;-69
2022/06/28 01:11:40;;;;;;;7.72;4.60;;;;;;;19.78;57.85;98865.84;1447244;81;21059;-69
2022/06/28 01:13:41;;;;;;;8.80;5.53;;;;;;;19.76;57.90;98865.98;1449518;81;81757;-69
2022/06/28 01:15:42;;;;;;;6.30;5.40;;;;;;;19.70;58.00;98858.01;1448309;81;21523;-68
2022/06/28 01:17:43;;;;;;;8.28;5.50;;;;;;;19.65;58.13;98864.25;1448303;81;21087;-69
2022/06/28 01:19:45;;;;;;;14.20;5.53;;;;;;;19.61;58.23;98860.65;1447630;81;80626;-68
2022/06/28 01:21:49;;;;;;;8.75;5.92;;;;;;;19.57;58.30;98862.73;1450193;81;21047;-68
2022/06/28 01:23:50;;;;;;;11.50;5.72;;;;;;;19.56;58.39;98859.23;1444290;81;22182;-68
2022/06/28 01:25:51;;;;;;;5.62;4.97;;;;;;;19.56;58.45;98860.56;1445965;81;80990;-69
2022/06/28 01:27:54;;;;;;;7.33;5.70;;;;;;;19.54;58.51;98862.51;1444946;81;21046;-68
2022/06/28 01:29:55;;;;;;;10.40;5.62;;;;;;;19.52;58.57;98864.48;1449243;81;21504;-68
2022/06/28 01:31:57;;;;;;;7.37;5.35;;;;;;;19.53;58.61;98868.83;1447520;81;81495;-68
2022/06/28 01:33:59;;;;;;;5.15;4.75;;;;;;;19.53;58.66;98873.34;1449629;81;21471;-68
2022/06/28 01:36:00;;;;;;;6.37;4.80;;;;;;;19.52;58.70;98875.17;1444869;81;21052;-69
2022/06/28 01:38:04;;;;;;;6.28;5.55;;;;;;;19.50;58.73;98881.63;1445725;81;80702;-68
2022/06/28 01:40:07;;;;;;;11.48;5.42;;;;;;;19.46;58.84;98881.04;1445663;81;21043;-68
2022/06/28 01:42:08;;;;;;;6.20;5.65;;;;;;;19.44;58.94;98879.47;1445891;81;21055;-68
2022/06/28 01:44:10;;;;;;;9.80;5.67;;;;;;;19.38;59.06;98878.19;1445408;81;80403;-68
2022/06/28 01:46:11;;;;;;;12.40;5.12;;;;;;;19.36;59.12;98878.82;1444655;81;21555;-68
2022/06/28 01:48:12;;;;;;;8.73;5.08;;;;;;;19.34;59.19;98887.44;1447676;81;21043;-68
2022/06/28 01:50:13;;;;;;;18.52;5.80;;;;;;;19.32;59.25;98886.75;1404508;84;80608;-68
2022/06/28 01:52:14;;;;;;;6.05;5.58;;;;;;;19.32;59.31;98888.08;1429085;83;21056;-69
2022/06/28 01:54:16;;;;;;;6.50;5.80;;;;;;;19.30;59.35;98886.02;1453234;81;22080;-68
2022/06/28 01:56:18;;;;;;;13.60;5.55;;;;;;;19.26;59.49;98896.61;1448212;81;80760;-69
2022/06/28 01:58:19;;;;;;;10.00;5.72;;;;;;;19.23;59.53;98894.57;1452074;81;21452;-69
2022/06/28 02:00:20;;;;;;;6.45;5.92;;;;;;;19.20;59.63;98895.31;1451030;81;21008;-69
2022/06/28 02:02:21;;;;;;;8.40;5.30;;;;;;;19.18;59.66;98898.11;1449983;80;81944;-69
2022/06/28 02:04:25;;;;;;;10.45;5.87;;;;;;;19.15;59.70;98905.06;1449628;81;21066;-69
2022/06/28 02:06:26;;;;;;;11.63;6.25;;;;;;;19.13;59.79;98903.00;1450962;81;21023;-68
2022/06/28 02:08:27;;;;;;;9.65;5.62;;;;;;;19.15;59.88;98908.20;1446600;81;81560;-68
2022/06/28 02:10:28;;;;;;;9.48;6.17;;;;;;;19.15;59.97;98921.09;1448574;81;21016;-69
2022/06/28 02:12:29;;;;;;;8.25;5.42;;;;;;;19.14;60.00;98912.71;1452344;81;20988;-69
2022/06/28 02:14:31;;;;;;;6.97;6.25;;;;;;;19.13;60.01;98920.86;1444890;81;80666;-69
2022/06/28 02:16:32;;;;;;;9.05;5.70;;;;;;;19.11;60.07;98916.16;1446339;81;21008;-68
2022/06/28 02:18:33;;;;;;;9.25;5.35;;;;;;;19.08;60.16;98919.92;1450592;81;20992;-68
2022/06/28 02:20:34;;;;;;;15.00;5.83;;;;;;;19.03;60.27;98916.79;1448692;81;81418;-69
2022/06/28 02:22:35;;;;;;;14.25;5.90;;;;;;;19.00;60.32;98921.90;1450743;81;21096;-69
2022/06/28 02:24:36;;;;;;;13.75;6.20;;;;;;;18.97;60.39;98930.64;1425629;82;21019;-69
2022/06/28 02:26:38;;;;;;;9.95;6.67;;;;;;;18.94;60.49;98936.25;1450569;81;80776;-69
2022/06/28 02:28:42;;;;;;;11.57;6.58;;;;;;;18.89;60.62;98932.14;1446639;81;22240;-69
2022/06/28 02:30:44;;;;;;;10.60;6.12;;;;;;;18.89;60.74;98933.48;1449610;81;21567;-69
2022/06/28 02:32:45;;;;;;;9.30;6.05;;;;;;;18.85;60.82;98930.66;1446548;81;80684;-69
2022/06/28 02:41:46;;;;;;;11.30;6.05;;;;;;;18.73;61.20;98926.34;1490104;79;21016;-69
2022/06/28 02:43:47;;;;;;;6.28;5.62;;;;;;;18.72;61.30;98934.02;1490622;79;81644;-69
2022/06/28 02:45:49;;;;;;;;;;;;;;;18.72;61.35;98933.52;1472724;80;21190;-69
2022/06/28 02:47:50;;;;;;;6.60;5.97;;;;;;;18.73;61.63;98939.70;1491166;79;20126;-70
2022/06/28 02:49:51;;;;;;;7.60;5.72;;;;;;;18.72;61.46;98939.36;1490756;78;80441;-68
2022/06/28 02:51:52;;;;;;;21.48;6.30;;;;;;;18.74;61.49;98946.73;1493888;79;20989;-69
2022/06/28 02:53:53;;;;;;;;;;;;;;;18.77;61.51;98942.47;1492713;79;21062;-69
2022/06/28 02:55:54;;;;;;;10.82;6.33;;;;;;;18.81;61.75;98947.92;1492822;79;67822;-69
2022/06/28 02:57:55;;;;;;;11.97;6.05;;;;;;;18.83;61.65;98941.98;1493916;79;21009;-69
2022/06/28 02:59:56;;;;;;;13.13;6.08;;;;;;;18.85;61.63;98945.86;1489720;78;21056;-69
2022/06/28 03:01:57;;;;;;;11.57;6.08;;;;;;;18.86;61.62;98940.38;1490406;79;81943;-69
2022/06/28 03:03:59;;;;;;;9.40;6.15;;;;;;;18.85;61.68;98940.02;1493831;79;21496;-70
2022/06/28 03:06:00;;;;;;;11.53;6.67;;;;;;;18.84;61.77;98937.01;1492315;79;21037;-69
2022/06/28 03:08:01;;;;;;;10.03;5.45;;;;;;;18.82;61.80;98938.94;1490189;79;80739;-69
2022/06/28 03:10:05;;;;;;;19.70;6.47;;;;;;;18.80;61.83;98940.91;1493931;79;21649;-70
2022/06/28 03:12:07;;;;;;;16.05;6.50;;;;;;;18.79;61.89;98944.55;1488153;79;21040;-70
2022/06/28 03:14:08;;;;;;;31.35;7.83;;;;;;;18.79;61.92;98950.35;1490554;78;81986;-70
2022/06/28 03:16:09;;;;;;;29.72;6.60;;;;;;;18.79;61.97;98945.02;1494379;79;21043;-70
2022/06/28 03:18:10;;;;;;;16.40;6.00;;;;;;;18.81;62.02;98936.41;1490894;79;21956;-70
2022/06/28 03:20:11;;;;;;;16.82;6.42;;;;;;;18.83;62.06;98939.31;1490264;79;81670;-69
2022/06/28 03:22:12;;;;;;;9.98;5.97;;;;;;;18.85;62.07;98936.01;1492020;79;20989;-70
2022/06/28 03:24:14;;;;;;;12.68;5.95;;;;;;;18.88;62.11;98937.61;1490947;79;21059;-69
2022/06/28 03:26:15;;;;;;;6.50;5.97;;;;;;;18.89;62.13;98937.48;1492201;79;81916;-69
2022/06/28 03:28:16;;;;;;;11.80;6.17;;;;;;;18.90;62.13;98938.34;1491736;78;21001;-69
2022/06/28 03:30:18;;;;;;;18.50;6.62;;;;;;;18.93;62.18;98937.22;1490050;79;21103;-69
2022/06/28 03:32:19;;;;;;;9.43;6.17;;;;;;;18.93;62.21;98939.89;1492172;78;80840;-68
2022/06/28 03:34:20;;;;;;;6.95;6.35;;;;;;;18.91;62.24;98937.35;1493025;78;21031;-69
2022/06/28 03:36:21;;;;;;;17.07;6.97;;;;;;;18.89;62.30;98945.49;1489463;79;21009;-69
2022/06/28 03:38:22;;;;;;;15.25;6.70;;;;;;;18.87;62.34;98943.45;1485155;79;81649;-70
2022/06/28 03:40:23;;;;;;;16.48;6.85;;;;;;;18.84;62.43;98942.34;1491195;79;21032;-69
2022/06/28 03:42:24;;;;;;;15.20;7.05;;;;;;;18.83;62.56;98937.98;1489662;79;21013;-69
2022/06/28 03:44:25;;;;;;;14.38;6.60;;;;;;;18.84;62.60;98936.14;1487610;79;81780;-69
2022/06/28 03:46:26;;;;;;;14.13;6.62;;;;;;;18.85;62.59;98941.84;1492207;79;20981;-69
2022/06/28 03:48:27;;;;;;;15.13;6.97;;;;;;;18.85;62.69;98940.52;1486331;79;21535;-69
2022/06/28 03:50:28;;;;;;;11.63;6.78;;;;;;;18.84;62.72;98938.34;1487976;79;80704;-69
2022/06/28 03:52:29;;;;;;;32.55;8.13;;;;;;;18.87;62.75;98936.78;1490404;79;21259;-69
2022/06/28 03:54:30;;;;;;;40.45;8.15;;;;;;;18.90;62.78;98941.02;1488322;79;21001;-69
2022/06/28 03:56:31;;;;;;;29.57;9.78;;;;;;;18.93;62.79;98937.22;1473386;79;80708;-70
2022/06/28 03:58:33;;;;;;;29.95;8.40;;;;;;;18.94;62.82;98939.79;1486655;79;20962;-69
2022/06/28 04:00:34;;;;;;;23.92;8.15;;;;;;;18.96;62.90;98940.49;1488062;79;21325;-70
2022/06/28 04:02:35;;;;;;;22.70;7.80;;;;;;;18.99;62.95;98940.23;1485579;79;81410;-70
2022/06/28 04:04:36;;;;;;;20.00;7.15;;;;;;;18.99;63.04;98941.56;1490053;79;21412;-70
2022/06/28 04:06:37;;;;;;;24.70;8.23;;;;;;;19.00;63.04;98940.59;1490049;79;21547;-70
2022/06/28 04:08:38;;;;;;;17.57;7.45;;;;;;;19.02;63.16;98943.13;1487585;79;80582;-70
2022/06/28 04:10:39;;;;;;;11.45;7.42;;;;;;;19.01;63.18;98945.44;1490064;79;21095;-70
2022/06/28 04:12:40;;;;;;;24.70;7.17;;;;;;;19.06;63.26;98940.56;1486684;79;21028;-70
2022/06/28 04:14:41;;;;;;;16.02;7.05;;;;;;;19.08;63.29;98943.97;1462064;79;81782;-69
2022/06/28 04:16:42;;;;;;;12.58;7.12;;;;;;;19.12;63.30;98941.41;1464342;80;21056;-69
2022/06/28 04:18:45;;;;;;;17.23;6.62;;;;;;;19.18;63.39;98948.88;1461827;80;21025;-70
2022/06/28 04:20:46;;;;;;;11.70;6.62;;;;;;;19.23;63.36;98941.33;1468331;80;81542;-70
2022/06/28 04:22:47;;;;;;;18.70;7.25;;;;;;;19.30;63.32;98943.47;1470947;80;21039;-70
2022/06/28 04:24:48;;;;;;;40.98;7.50;;;;;;;19.32;63.29;98936.19;1468078;80;80964;-70
2022/06/28 04:26:49;;;;;;;29.77;7.83;;;;;;;19.37;63.35;98936.15;1458084;79;21571;-69
2022/06/28 04:28:50;;;;;;;47.78;8.18;;;;;;;19.43;63.35;98934.77;1459558;80;21048;-69
2022/06/28 04:30:51;;;;;;;13.32;7.42;;;;;;;19.51;63.36;98938.14;1438344;80;81783;-69
2022/06/28 04:32:52;;;;;;;14.75;6.80;;;;;;;19.30;63.41;98894.90;1447108;82;22204;-69
2022/06/28 04:34:56;;;;;;;24.05;7.65;;;;;;;19.63;63.48;98934.37;1470426;80;20981;-70
2022/06/28 04:36:57;;;;;;;10.28;7.30;;;;;;;19.69;63.42;98931.69;1467571;80;81645;-69
2022/06/28 04:38:59;;;;;;;14.40;7.85;;;;;;;19.78;63.42;98935.38;1458821;79;21090;-69
2022/06/28 04:41:00;;;;;;;16.27;7.40;;;;;;;19.83;63.32;98931.34;1461641;81;21888;-69
2022/06/28 04:43:02;;;;;;;27.73;7.92;;;;;;;19.93;63.27;98938.58;1459636;80;81761;-69
2022/06/28 04:45:05;;;;;;;31.57;7.83;;;;;;;20.01;63.26;98934.23;1470080;79;21595;-68
2022/06/28 04:47:08;;;;;;;12.35;7.75;;;;;;;20.11;63.33;98939.61;1472403;79;21072;-69
2022/06/28 04:49:09;;;;;;;54.35;8.73;;;;;;;20.20;63.27;98937.47;1467452;79;81980;-69
2022/06/28 04:51:13;;;;;;;42.70;8.75;;;;;;;20.31;63.14;98936.98;1459574;81;20995;-68
2022/06/28 04:53:14;;;;;;;16.17;8.18;;;;;;;20.38;63.07;98941.67;1457576;79;20988;-69
2022/06/28 04:55:18;;;;;;;23.35;8.35;;;;;;;20.48;62.97;98944.36;1460933;79;81153;-69
2022/06/28 04:57:19;;;;;;;46.20;8.18;;;;;;;20.57;62.92;98942.20;1467874;79;21024;-69
2022/06/28 04:59:20;;;;;;;48.33;8.90;;;;;;;20.68;62.80;98947.09;1469281;79;20977;-69
2022/06/28 05:01:21;;;;;;;16.07;7.85;;;;;;;20.77;62.72;98940.91;1465949;79;81749;-69
2022/06/28 05:03:23;;;;;;;23.65;7.72;;;;;;;20.88;62.64;98950.14;1431726;83;21063;-69
2022/06/28 05:05:24;;;;;;;20.75;9.10;;;;;;;20.99;62.72;98941.59;1411518;83;21027;-69
2022/06/28 05:07:25;;;;;;;26.62;9.15;;;;;;;21.08;62.65;98949.63;1398820;83;80863;-69
2022/06/28 05:09:26;;;;;;;23.50;9.85;;;;;;;21.19;62.52;98945.95;1431679;81;21057;-69
2022/06/28 05:11:28;;;;;;;23.22;9.45;;;;;;;21.31;62.43;98944.45;1408237;83;22365;-69
2022/06/28 05:13:30;;;;;;;36.68;9.93;;;;;;;21.39;62.39;98933.86;1409127;82;81613;-69
2022/06/28 05:15:31;;;;;;;37.15;9.33;;;;;;;21.51;62.18;98936.73;1432399;81;21067;-69
2022/06/28 05:17:32;;;;;;;39.25;9.48;;;;;;;21.60;62.17;98927.84;1433121;81;21075;-69
2022/06/28 05:19:33;;;;;;;33.58;9.38;;;;;;;21.70;62.06;98922.95;1412620;83;80756;-69
2022/06/28 05:21:34;;;;;;;29.35;9.38;;;;;;;21.77;62.01;98920.86;1426119;83;21021;-68
2022/06/28 05:23:37;;;;;;;32.08;8.70;;;;;;;21.84;61.87;98921.13;1432945;82;21038;-68
2022/06/28 05:25:38;;;;;;;38.70;9.83;;;;;;;21.90;61.78;98921.89;1426409;82;80821;-69
2022/06/28 05:27:40;;;;;;;26.60;9.93;;;;;;;21.97;61.84;98919.44;1433687;82;21067;-69
2022/06/28 05:29:41;;;;;;;28.27;8.78;;;;;;;22.00;61.74;98920.98;1431189;82;21238;-69
2022/06/28 05:31:42;;;;;;;29.27;9.85;;;;;;;22.05;61.65;98920.05;1424954;82;80875;-68
2022/06/28 05:33:43;;;;;;;33.30;9.53;;;;;;;22.10;61.62;98918.59;1431297;82;21878;-69
2022/06/28 05:35:44;;;;;;;24.98;9.75;;;;;;;22.16;61.64;98921.18;1423712;83;21076;-69
2022/06/28 05:37:45;;;;;;;43.95;10.32;;;;;;;22.19;61.59;98912.82;1434887;82;81565;-69
2022/06/28 05:39:47;;;;;;;42.10;9.20;;;;;;;22.19;61.51;98915.50;1441513;82;21085;-69
2022/06/28 05:41:48;;;;;;;46.53;9.68;;;;;;;22.25;61.62;98913.58;1457959;81;21026;-69
2022/06/28 05:43:49;;;;;;;50.65;10.00;;;;;;;22.31;61.55;98913.47;1463154;80;80879;-69
2022/06/28 05:45:50;;;;;;;26.27;9.50;;;;;;;22.38;61.50;98908.38;1443049;81;21069;-69
2022/06/28 05:47:51;;;;;;;34.18;11.28;;;;;;;22.44;61.48;98905.07;1432841;81;21104;-70
2022/06/28 05:49:52;;;;;;;32.93;9.95;;;;;;;22.51;61.49;98908.83;1457857;80;81618;-70
2022/06/28 05:51:53;;;;;;;73.60;11.40;;;;;;;22.58;61.49;98901.88;1457582;81;20987;-69
2022/06/28 05:53:54;;;;;;;93.65;11.57;;;;;;;22.63;61.50;98900.06;1459336;80;21515;-69
2022/06/28 05:55:55;;;;;;;120.20;12.58;;;;;;;22.71;61.44;98895.28;1459347;81;81330;-69
2022/06/28 05:57:56;;;;;;;111.40;12.15;;;;;;;22.78;61.37;98891.80;1481375;80;21505;-70
2022/06/28 05:59:57;;;;;;;114.65;13.03;;;;;;;22.87;61.44;98893.22;1478850;80;21020;-69
2022/06/28 06:01:58;;;;;;;113.92;12.88;;;;;;;22.94;61.38;98882.18;1479939;80;82134;-69
2022/06/28 06:04:00;;;;;;;141.60;12.25;;;;;;;23.01;61.33;98885.09;1478926;80;21079;-69
2022/06/28 06:06:01;;;;;;;123.05;13.65;;;;;;;23.08;61.29;98879.44;1482374;80;21031;-69
2022/06/28 06:08:02;;;;;;;197.20;16.42;;;;;;;23.18;61.10;98878.88;1463938;80;82005;-68
2022/06/28 06:10:04;;;;;;;106.70;12.88;;;;;;;23.25;60.91;98881.28;1488514;79;21044;-69
2022/06/28 06:12:06;;;;;;;65.42;10.70;;;;;;;23.35;61.09;98878.99;1488941;79;21040;-69
2022/06/28 06:14:07;;;;;;;84.20;11.05;;;;;;;23.43;60.93;98883.08;1486869;79;80845;-68
2022/06/28 06:16:08;;;;;;;40.95;9.65;;;;;;;23.49;60.81;98885.12;1486426;79;21972;-69
2022/06/28 06:18:09;;;;;;;32.30;9.38;;;;;;;23.57;60.53;98879.78;1487497;79;21415;-69
2022/06/28 06:20:11;;;;;;;29.50;8.60;;;;;;;23.64;60.45;98886.20;1489493;79;80860;-70
2022/06/28 06:22:12;;;;;;;34.10;9.78;;;;;;;23.73;60.40;98888.94;1488680;79;20985;-69
2022/06/28 06:24:13;;;;;;;48.48;9.95;;;;;;;23.82;60.42;98893.37;1486446;79;21024;-68
2022/06/28 06:26:14;;;;;;;17.62;8.70;;;;;;;23.92;60.37;98894.10;1491648;79;81934;-69
2022/06/28 06:28:16;;;;;;;41.28;10.85;;;;;;;24.04;60.09;98887.11;1488766;79;21103;-69
2022/06/28 06:30:17;;;;;;;34.38;9.18;;;;;;;24.16;59.89;98888.98;1491108;79;20993;-69
2022/06/28 06:32:20;;;;;;;49.25;9.30;;;;;;;24.27;59.78;98892.22;1482900;79;81591;-68
2022/06/28 06:34:21;;;;;;;26.62;9.30;;;;;;;24.40;59.54;98886.88;1483462;79;22046;-69
2022/06/28 06:36:23;;;;;;;36.13;8.70;;;;;;;24.51;59.55;98894.63;1485794;79;20996;-69
2022/06/28 06:38:24;;;;;;;47.83;8.93;;;;;;;24.57;59.53;98893.95;1485691;79;81554;-69
2022/06/28 06:40:25;;;;;;;28.27;8.95;;;;;;;24.63;59.34;98898.73;1489027;79;21056;-69
2022/06/28 06:42:26;;;;;;;43.65;9.30;;;;;;;24.67;59.33;98898.38;1464166;80;21420;-69
2022/06/28 06:44:27;;;;;;;62.58;9.98;;;;;;;24.73;59.31;98892.31;1484943;79;82055;-69
2022/06/28 06:46:29;;;;;;;21.52;8.90;;;;;;;24.79;59.12;98890.31;1483939;79;20956;-69
2022/06/28 06:48:30;;;;;;;32.13;9.25;;;;;;;24.84;59.01;98896.05;1487357;79;21004;-70
2022/06/28 06:50:31;;;;;;;31.20;10.40;;;;;;;24.85;58.84;98896.36;1494697;78;81689;-69
2022/06/28 06:52:32;;;;;;;41.02;8.78;;;;;;;24.85;58.81;98897.71;1494414;78;21023;-68
2022/06/28 06:54:33;;;;;;;32.65;10.20;;;;;;;24.89;58.83;98899.58;1497199;78;21082;-69
2022/06/28 06:56:33;;;;;;;41.70;10.00;;;;;;;24.93;58.62;98904.97;1495932;78;81691;-68
2022/06/28 06:58:34;;;;;;;39.18;9.43;;;;;;;24.95;58.57;98901.10;1498225;78;21510;-69
2022/06/28 07:00:35;;;;;;;44.10;9.23;;;;;;;24.99;58.46;98909.68;1499730;78;20936;-69
2022/06/28 07:02:41;;;;;;;41.90;9.10;;;;;;;25.03;58.51;98908.84;1494151;78;81012;-70
2022/06/28 07:04:43;;;;;;;67.32;9.05;;;;;;;25.05;58.31;98903.63;1500861;78;20991;-69
2022/06/28 07:06:44;;;;;;;62.05;9.18;;;;;;;25.12;58.31;98909.19;1495571;78;21637;-69
2022/06/28 07:08:45;;;;;;;34.05;8.43;;;;;;;25.20;58.33;98909.19;1495410;78;80779;-69
2022/06/28 07:10:47;;;;;;;58.75;10.30;;;;;;;25.30;58.34;98912.53;1497354;78;21471;-68
2022/06/28 07:12:48;;;;;;;41.08;8.90;;;;;;;25.42;58.11;98909.51;1495961;78;21047;-69
2022/06/28 07:14:50;;;;;;;32.13;7.70;;;;;;;25.51;57.93;98909.01;1498057;78;21000;-69
2022/06/28 07:16:51;;;;;;;49.03;7.45;;;;;;;25.62;57.95;98918.09;1497671;78;21083;-69
2022/06/28 07:18:52;;;;;;;22.98;6.85;;;;;;;25.73;57.70;98923.63;1495054;78;81008;-70
2022/06/28 07:20:55;;;;;;;19.82;7.25;;;;;;;25.84;57.36;98923.25;1469599;80;20972;-69
2022/06/28 07:22:56;;;;;;;32.08;8.50;;;;;;;25.95;57.15;98920.69;1495768;78;20999;-69
2022/06/28 07:24:59;;;;;;;20.70;6.78;;;;;;;26.07;56.91;98919.33;1495450;78;81310;-69
2022/06/28 07:27:00;;;;;;;19.85;6.83;;;;;;;26.22;56.84;98918.57;1494953;78;21019;-70
2022/06/28 07:29:01;;;;;;;27.37;7.03;;;;;;;26.38;56.63;98919.01;1497893;78;22124;-69
2022/06/28 07:31:02;;;;;;;21.10;7.55;;;;;;;26.48;56.19;98912.86;1496454;78;80830;-69
2022/06/28 07:33:04;;;;;;;49.30;8.13;;;;;;;26.57;55.80;98909.09;1499171;78;21031;-69
2022/06/28 07:35:06;;;;;;;13.48;6.80;;;;;;;26.67;55.71;98904.27;1501438;78;21328;-69
2022/06/28 07:37:07;;;;;;;42.08;7.83;;;;;;;26.85;55.66;98910.77;1493359;78;81004;-69
2022/06/28 07:39:09;;;;;;;33.83;8.28;;;;;;;26.98;55.31;98908.80;1491255;78;21012;-68
2022/06/28 07:41:10;;;;;;;65.40;9.53;;;;;;;27.13;54.71;98910.72;1489754;79;20998;-70
2022/06/28 07:43:11;;;;;;;26.07;8.13;;;;;;;27.21;54.54;98906.59;1489423;79;80821;-69
2022/06/28 07:45:13;;;;;;;37.30;8.18;;;;;;;27.30;54.71;98901.41;1488440;79;21032;-69
2022/06/28 07:47:15;;;;;;;56.68;8.30;;;;;;;27.44;54.72;98903.87;1489804;79;21056;-69
2022/06/28 07:49:16;;;;;;;20.85;7.15;;;;;;;27.57;54.60;98901.86;1482782;79;80759;-69
2022/06/28 07:53:37;;;;;;;30.07;7.53;;;;;;;27.72;54.29;98890.18;1486728;79;21495;-70
2022/06/28 07:55:38;;;;;;;46.33;7.67;;;;;;;27.81;53.67;98891.78;1489227;79;81932;-70
2022/06/28 07:57:39;;;;;;;34.83;7.95;;;;;;;27.93;53.86;98888.92;1489709;79;20976;-70
2022/06/28 07:59:42;;;;;;;23.92;8.03;;;;;;;28.03;52.89;98892.19;1490797;79;21000;-70
2022/06/28 08:01:43;;;;;;;34.92;7.05;;;;;;;28.07;52.75;98893.20;1492534;79;81887;-70
2022/06/28 08:03:44;;;;;;;49.18;7.90;;;;;;;28.07;52.25;98890.48;1492169;79;21079;-71
2022/06/28 08:05:45;;;;;;;17.98;6.15;;;;;;;28.08;52.35;98888.08;1491201;79;21621;-70
2022/06/28 08:07:48;;;;;;;25.05;6.53;;;;;;;28.14;52.36;98894.11;1490423;79;81962;-70
2022/06/28 08:09:49;;;;;;;27.65;7.08;;;;;;;28.26;52.58;98896.66;1489572;79;21098;-71
2022/06/28 08:11:51;;;;;;;15.10;6.12;;;;;;;28.38;52.58;98896.98;1490022;79;20992;-70
2022/06/28 08:13:54;;;;;;;20.15;6.47;;;;;;;28.46;52.23;98893.33;1488455;79;80803;-70
2022/06/28 08:15:56;;;;;;;28.35;6.50;;;;;;;28.54;52.04;98897.28;1489845;79;21326;-71
2022/06/28 08:17:57;;;;;;;23.57;6.60;;;;;;;28.59;51.92;98903.47;1491279;79;21011;-72
2022/06/28 08:19:58;;;;;;;40.95;5.92;;;;;;;28.67;51.42;98905.56;1488805;79;80833;-71
2022/06/28 08:21:59;;;;;;;30.08;5.50;;;;;;;28.75;51.54;98908.67;1490131;79;21020;-72
2022/06/28 08:24:00;;;;;;;32.67;6.33;;;;;;;28.82;51.11;98913.64;1490685;79;21047;-70
2022/06/28 08:26:01;;;;;;;37.48;6.60;;;;;;;28.85;50.52;98915.95;1491180;79;81655;-70
2022/06/28 08:28:02;;;;;;;26.73;5.50;;;;;;;28.90;50.62;98913.18;1491183;79;21037;-71
2022/06/28 08:30:05;;;;;;;31.97;6.25;;;;;;;29.04;50.76;98916.36;1487171;79;21662;-71
2022/06/28 08:32:06;;;;;;;49.88;6.67;;;;;;;29.20;50.59;98912.51;1487785;79;81967;-72
2022/06/28 08:34:07;;;;;;;33.80;5.80;;;;;;;29.32;50.10;98910.14;1489010;79;21020;-71
2022/06/28 08:36:08;;;;;;;57.50;6.83;;;;;;;29.44;49.83;98910.45;1477490;79;21005;-71
2022/06/28 08:38:09;;;;;;;48.55;6.90;;;;;;;29.53;49.90;98907.88;1490337;79;80718;-71
2022/06/28 08:40:11;;;;;;;29.72;6.45;;;;;;;29.65;49.47;98908.18;1490387;79;21095;-71
2022/06/28 08:42:15;;;;;;;47.70;6.40;;;;;;;29.72;49.44;98909.88;1489653;79;21023;-71
2022/06/28 08:44:17;;;;;;;32.17;5.42;;;;;;;29.83;49.49;98913.92;1493467;79;81660;-71
2022/06/28 08:46:20;;;;;;;30.40;5.65;;;;;;;29.95;49.32;98915.59;1489065;79;21555;-71
2022/06/28 08:48:24;;;;;;;27.02;5.60;;;;;;;30.09;48.87;98924.65;1491274;79;21145;-71
2022/06/28 08:50:36;;;;;;;29.23;4.95;;;;;;;30.16;48.73;98917.35;1493109;79;81670;-70
2022/06/28 08:52:38;;;;;;;23.47;5.10;;;;;;;30.22;48.67;98922.50;1492436;79;21525;-71
2022/06/28 08:54:41;;;;;;;23.38;4.47;;;;;;;30.34;48.40;98927.67;1491831;79;21023;-71
2022/06/28 08:56:43;;;;;;;16.95;3.47;;;;;;;30.37;48.03;98923.71;1492902;79;80765;-70
2022/06/28 08:58:44;;;;;;;6.67;3.58;;;;;;;30.50;47.85;98931.09;1492668;79;21039;-72
2022/06/28 09:00:47;;;;;;;18.87;4.37;;;;;;;30.62;47.23;98932.18;1490994;79;21063;-72
2022/06/28 09:02:48;;;;;;;12.05;4.08;;;;;;;30.70;47.25;98930.62;1490412;79;80516;-71
2022/06/28 09:04:53;;;;;;;8.68;4.00;;;;;;;30.71;47.32;98924.16;1493070;79;21016;-71
2022/06/28 09:06:54;;;;;;;14.50;4.30;;;;;;;30.78;47.17;98927.39;1491280;79;80848;-71
2022/06/28 09:08:55;;;;;;;20.10;4.10;;;;;;;30.81;47.02;98921.03;1491187;79;22113;-71
2022/06/28 09:10:56;;;;;;;18.10;3.30;;;;;;;30.90;46.84;98912.13;1463583;80;20961;-71
2022/06/28 09:13:07;;;;;;;11.22;3.77;;;;;;;30.94;46.39;98915.29;1489618;79;82310;-71
2022/06/28 09:15:09;;;;;;;14.20;3.12;;;;;;;31.02;46.63;98913.22;1488745;79;21060;-71
2022/06/28 09:17:28;;;;;;;37.23;3.72;;;;;;;31.15;46.16;98908.83;1492332;79;22213;-70
2022/06/28 09:19:34;;;;;;;28.67;4.92;;;;;;;31.26;45.92;98912.28;1488151;79;82094;-71
2022/06/28 09:21:38;;;;;;;35.40;4.12;;;;;;;31.31;45.53;98913.86;1490617;79;20984;-72
2022/06/28 09:23:43;;;;;;;14.43;3.25;;;;;;;31.41;44.88;98912.89;1493323;79;21020;-72
2022/06/28 09:25:44;;;;;;;5.58;3.17;;;;;;;31.52;45.18;98903.78;1484456;79;81556;-71
2022/06/28 09:27:45;;;;;;;10.70;3.50;;;;;;;31.66;45.11;98905.45;1468322;80;21020;-69
2022/06/28 09:29:48;;;;;;;12.70;3.37;;;;;;;31.75;45.05;98897.36;1448911;80;21028;-69
2022/06/28 09:31:49;;;;;;;18.55;3.92;;;;;;;31.85;44.47;98899.64;1451448;81;80961;-71
2022/06/28 09:34:07;;;;;;;15.68;3.67;;;;;;;31.94;43.90;98897.50;1468313;80;20981;-71
2022/06/28 09:36:17;;;;;;;9.35;3.67;;;;;;;31.92;43.35;98906.44;1495174;79;21016;-70
2022/06/28 09:38:32;;;;;;;26.17;4.13;;;;;;;31.97;44.15;98906.64;1488392;79;80425;-70